senda-costa-naviega-etapa-2.gpx<?xml version="1.0" encoding="UTF-8" standalone="no" ?>
<gpx xmlns="http://www.topografix.com/GPX/1/1" xmlns:gpxtpx="http://www.garmin.com/xmlschemas/TrackPointExtension/v1" creator="Mapas de España v.3.0.0" version="1.1" xmlns:xsi="http://www.w3.org/2001/XMLSchema-instance" xsi:schemaLocation="http://www.topografix.com/GPX/1/1 http://www.topografix.com/GPX/1/1/gpx.xsd">
<!-- owner: d59e49435998d5 -->
<metadata>
<name><![CDATA[2023-04-28 11:32:55]]></name>
<link href="https://www.oruxmaps.com">
<text>Mapas de España</text>
</link>
<time>2023-04-28T09:32:55.775Z</time><bounds maxlat="43.5672326" maxlon="-6.6464118" minlat="43.5605448" minlon="-6.6730341"/>
</metadata>
<wpt lat="43.5639653" lon="-6.6464118">
<ele>17.04</ele>
<time>2023-04-28T09:32:55.987Z</time>
<name><![CDATA[]]></name>
<sym>Waypoint</sym>
<type>Comienzo</type>
<extensions>
<om:oruxmapsextensions xmlns:om="http://www.oruxmaps.com/oruxmapsextensions/1/0">
<om:ext type="ICON" subtype="0">38</om:ext>
</om:oruxmapsextensions>
</extensions>
</wpt>
<wpt lat="43.5605448" lon="-6.6730341">
<ele>4.94</ele>
<time>2023-04-28T11:21:43.157Z</time>
<name><![CDATA[]]></name>
<desc><![CDATA[<p><br /><h3>Nombre: Segmento: 1</h3><br />Tipo: Indefinido<br/>Hora Inicio: 11:32 28 abr. 2023<br/>Hora Fin: 13:20 28 abr. 2023<br/>Distancia recorrida: 3,6km (01:47)<br/>Tiempo en movimiento: 01:17<br/>Velocidad media: 2,02 km/h<br/>Vel. en Mov.: 2,83 km/h<br/>Velocidad Máxima: 5,46 km/h<br/>Altura Mínima: 13 m<br/>Altura Máxima: 43 m<br/>Velocidad Ascenso: 104,8 m/h<br/>Velocidad Descenso: 146,4 m/h<br/>Ganancia Altitud: 53 m<br/>Pérdida Altitud: 50 m<br/>Tiempo Ascenso: 00:30<br/>Tiempo Descenso: 00:20<br/></p>]]></desc>
<sym>Waypoint</sym>
<type>Final</type>
<extensions>
<om:oruxmapsextensions xmlns:om="http://www.oruxmaps.com/oruxmapsextensions/1/0">
<om:ext type="ICON" subtype="0">15</om:ext>
</om:oruxmapsextensions>
</extensions>
</wpt>
<trk>
<name><![CDATA[2023-04-28 11:32:55]]></name>
<desc><![CDATA[<p>Tipo: Indefinido<br/>Hora Inicio: 11:32 28 abr. 2023<br/>Hora Fin: 13:20 28 abr. 2023<br/>Distancia recorrida: 3,6 km (01:47)<br/>Tiempo en movimiento: 01:17<br/>Velocidad media: 2,02 km/h<br/>Vel. en Mov.: 2,83 km/h<br/>Velocidad Máxima: 5,46 km/h<br/>Altura Mínima: 13 m<br/>Altura Máxima: 43 m<br/>Velocidad Ascenso: 104,8 m/h<br/>Velocidad Descenso: 146,4 m/h<br/>Ganancia Altitud: 53 m<br/>Pérdida Altitud: 50 m<br/>Tiempo Ascenso: 00:30<br/>Tiempo Descenso: 00:20<br/></p><hr align="center" width="480" style="height: 2px; width: 517px"/>]]></desc>
<type>Indefinido</type>
<extensions>
<om:oruxmapsextensions xmlns:om="http://www.oruxmaps.com/oruxmapsextensions/1/0">
<om:ext type="TYPE" subtype="0">0</om:ext>
<om:ext type="DIFFICULTY">0</om:ext>
</om:oruxmapsextensions>
</extensions>
<trkseg>
<trkpt lat="43.5639653" lon="-6.6464118">
<ele>17.04</ele>
<time>2023-04-28T09:32:57.000Z</time>
</trkpt>
<trkpt lat="43.5641267" lon="-6.6465316">
<ele>14.73</ele>
<time>2023-04-28T09:33:35.000Z</time>
</trkpt>
<trkpt lat="43.5643129" lon="-6.6464999">
<ele>22.40</ele>
<time>2023-04-28T09:33:54.000Z</time>
</trkpt>
<trkpt lat="43.5644969" lon="-6.6464769">
<ele>23.73</ele>
<time>2023-04-28T09:34:11.000Z</time>
</trkpt>
<trkpt lat="43.5646403" lon="-6.6466309">
<ele>17.94</ele>
<time>2023-04-28T09:35:39.000Z</time>
</trkpt>
<trkpt lat="43.5647244" lon="-6.6468534">
<ele>11.73</ele>
<time>2023-04-28T09:36:09.000Z</time>
</trkpt>
<trkpt lat="43.5648538" lon="-6.6470314">
<ele>20.70</ele>
<time>2023-04-28T09:37:03.000Z</time>
</trkpt>
<trkpt lat="43.5650005" lon="-6.6471916">
<ele>19.63</ele>
<time>2023-04-28T09:37:33.000Z</time>
</trkpt>
<trkpt lat="43.5651295" lon="-6.6473810">
<ele>21.73</ele>
<time>2023-04-28T09:37:56.000Z</time>
</trkpt>
<trkpt lat="43.5650372" lon="-6.6475992">
<ele>22.81</ele>
<time>2023-04-28T09:38:18.000Z</time>
</trkpt>
<trkpt lat="43.5651599" lon="-6.6477889">
<ele>21.72</ele>
<time>2023-04-28T09:38:53.000Z</time>
</trkpt>
<trkpt lat="43.5652234" lon="-6.6480289">
<ele>20.72</ele>
<time>2023-04-28T09:39:11.000Z</time>
</trkpt>
<trkpt lat="43.5653211" lon="-6.6482437">
<ele>22.42</ele>
<time>2023-04-28T09:39:31.000Z</time>
</trkpt>
<trkpt lat="43.5654460" lon="-6.6484329">
<ele>23.99</ele>
<time>2023-04-28T09:39:48.000Z</time>
</trkpt>
<trkpt lat="43.5655757" lon="-6.6486247">
<ele>25.62</ele>
<time>2023-04-28T09:40:04.000Z</time>
</trkpt>
<trkpt lat="43.5656940" lon="-6.6488236">
<ele>27.41</ele>
<time>2023-04-28T09:40:22.000Z</time>
</trkpt>
<trkpt lat="43.5658755" lon="-6.6488824">
<ele>29.02</ele>
<time>2023-04-28T09:40:41.000Z</time>
</trkpt>
<trkpt lat="43.5660222" lon="-6.6490301">
<ele>30.70</ele>
<time>2023-04-28T09:41:01.000Z</time>
</trkpt>
<trkpt lat="43.5661735" lon="-6.6491787">
<ele>31.71</ele>
<time>2023-04-28T09:41:17.000Z</time>
</trkpt>
<trkpt lat="43.5663118" lon="-6.6493444">
<ele>32.70</ele>
<time>2023-04-28T09:42:30.000Z</time>
</trkpt>
<trkpt lat="43.5664547" lon="-6.6495024">
<ele>33.70</ele>
<time>2023-04-28T09:42:46.000Z</time>
</trkpt>
<trkpt lat="43.5666302" lon="-6.6495991">
<ele>31.70</ele>
<time>2023-04-28T09:43:01.000Z</time>
</trkpt>
<trkpt lat="43.5668069" lon="-6.6496815">
<ele>30.72</ele>
<time>2023-04-28T09:43:49.000Z</time>
</trkpt>
<trkpt lat="43.5669708" lon="-6.6497965">
<ele>30.00</ele>
<time>2023-04-28T09:44:40.000Z</time>
</trkpt>
<trkpt lat="43.5669941" lon="-6.6500518">
<ele>29.69</ele>
<time>2023-04-28T09:44:56.000Z</time>
</trkpt>
<trkpt lat="43.5669111" lon="-6.6502857">
<ele>27.70</ele>
<time>2023-04-28T09:45:12.000Z</time>
</trkpt>
<trkpt lat="43.5670599" lon="-6.6504498">
<ele>26.69</ele>
<time>2023-04-28T09:45:32.000Z</time>
</trkpt>
<trkpt lat="43.5672326" lon="-6.6505315">
<ele>27.69</ele>
<time>2023-04-28T09:46:04.000Z</time>
</trkpt>
<trkpt lat="43.5671272" lon="-6.6507371">
<ele>28.71</ele>
<time>2023-04-28T09:48:16.000Z</time>
</trkpt>
<trkpt lat="43.5669538" lon="-6.6508201">
<ele>31.67</ele>
<time>2023-04-28T09:48:36.000Z</time>
</trkpt>
<trkpt lat="43.5667687" lon="-6.6507570">
<ele>32.70</ele>
<time>2023-04-28T09:48:54.000Z</time>
</trkpt>
<trkpt lat="43.5666096" lon="-6.6506403">
<ele>34.61</ele>
<time>2023-04-28T09:49:11.000Z</time>
</trkpt>
<trkpt lat="43.5667100" lon="-6.6508618">
<ele>27.49</ele>
<time>2023-04-28T09:57:43.000Z</time>
</trkpt>
<trkpt lat="43.5668620" lon="-6.6510171">
<ele>26.79</ele>
<time>2023-04-28T09:58:02.000Z</time>
</trkpt>
<trkpt lat="43.5669508" lon="-6.6512443">
<ele>22.70</ele>
<time>2023-04-28T09:58:25.000Z</time>
</trkpt>
<trkpt lat="43.5668528" lon="-6.6514696">
<ele>19.72</ele>
<time>2023-04-28T09:58:40.000Z</time>
</trkpt>
<trkpt lat="43.5667303" lon="-6.6516616">
<ele>20.67</ele>
<time>2023-04-28T09:58:55.000Z</time>
</trkpt>
<trkpt lat="43.5665481" lon="-6.6516759">
<ele>22.69</ele>
<time>2023-04-28T09:59:58.000Z</time>
</trkpt>
<trkpt lat="43.5663674" lon="-6.6516365">
<ele>27.67</ele>
<time>2023-04-28T10:00:25.000Z</time>
</trkpt>
<trkpt lat="43.5662362" lon="-6.6518233">
<ele>28.79</ele>
<time>2023-04-28T10:00:47.000Z</time>
</trkpt>
<trkpt lat="43.5662489" lon="-6.6520816">
<ele>26.97</ele>
<time>2023-04-28T10:01:05.000Z</time>
</trkpt>
<trkpt lat="43.5661963" lon="-6.6523326">
<ele>26.91</ele>
<time>2023-04-28T10:01:22.000Z</time>
</trkpt>
<trkpt lat="43.5661743" lon="-6.6525799">
<ele>26.70</ele>
<time>2023-04-28T10:01:40.000Z</time>
</trkpt>
<trkpt lat="43.5660419" lon="-6.6527554">
<ele>25.68</ele>
<time>2023-04-28T10:02:15.000Z</time>
</trkpt>
<trkpt lat="43.5658924" lon="-6.6529042">
<ele>22.70</ele>
<time>2023-04-28T10:03:17.000Z</time>
</trkpt>
<trkpt lat="43.5657440" lon="-6.6530543">
<ele>18.70</ele>
<time>2023-04-28T10:04:12.000Z</time>
</trkpt>
<trkpt lat="43.5655953" lon="-6.6531983">
<ele>16.73</ele>
<time>2023-04-28T10:04:36.000Z</time>
</trkpt>
<trkpt lat="43.5656073" lon="-6.6534485">
<ele>12.70</ele>
<time>2023-04-28T10:05:34.000Z</time>
</trkpt>
<trkpt lat="43.5657852" lon="-6.6535212">
<ele>13.68</ele>
<time>2023-04-28T10:05:52.000Z</time>
</trkpt>
<trkpt lat="43.5658925" lon="-6.6537308">
<ele>17.40</ele>
<time>2023-04-28T10:06:22.000Z</time>
</trkpt>
<trkpt lat="43.5659451" lon="-6.6539766">
<ele>16.71</ele>
<time>2023-04-28T10:06:54.000Z</time>
</trkpt>
<trkpt lat="43.5658804" lon="-6.6542105">
<ele>19.70</ele>
<time>2023-04-28T10:07:44.000Z</time>
</trkpt>
<trkpt lat="43.5658796" lon="-6.6544730">
<ele>19.67</ele>
<time>2023-04-28T10:08:01.000Z</time>
</trkpt>
<trkpt lat="43.5658067" lon="-6.6547045">
<ele>26.67</ele>
<time>2023-04-28T10:08:23.000Z</time>
</trkpt>
<trkpt lat="43.5657525" lon="-6.6549475">
<ele>25.70</ele>
<time>2023-04-28T10:08:43.000Z</time>
</trkpt>
<trkpt lat="43.5657051" lon="-6.6551921">
<ele>25.00</ele>
<time>2023-04-28T10:09:02.000Z</time>
</trkpt>
<trkpt lat="43.5656389" lon="-6.6554312">
<ele>24.70</ele>
<time>2023-04-28T10:09:18.000Z</time>
</trkpt>
<trkpt lat="43.5657446" lon="-6.6556360">
<ele>23.00</ele>
<time>2023-04-28T10:09:39.000Z</time>
</trkpt>
<trkpt lat="43.5657409" lon="-6.6558893">
<ele>19.79</ele>
<time>2023-04-28T10:09:58.000Z</time>
</trkpt>
<trkpt lat="43.5656686" lon="-6.6561235">
<ele>18.00</ele>
<time>2023-04-28T10:10:23.000Z</time>
</trkpt>
<trkpt lat="43.5655445" lon="-6.6563083">
<ele>14.70</ele>
<time>2023-04-28T10:10:59.000Z</time>
</trkpt>
<trkpt lat="43.5656501" lon="-6.6565167">
<ele>13.70</ele>
<time>2023-04-28T10:11:40.000Z</time>
</trkpt>
<trkpt lat="43.5657608" lon="-6.6567143">
<ele>11.70</ele>
<time>2023-04-28T10:15:03.000Z</time>
</trkpt>
<trkpt lat="43.5658690" lon="-6.6569143">
<ele>12.78</ele>
<time>2023-04-28T10:15:57.000Z</time>
</trkpt>
<trkpt lat="43.5660266" lon="-6.6570341">
<ele>17.71</ele>
<time>2023-04-28T10:17:21.000Z</time>
</trkpt>
<trkpt lat="43.5662046" lon="-6.6569638">
<ele>22.76</ele>
<time>2023-04-28T10:17:47.000Z</time>
</trkpt>
<trkpt lat="43.5663625" lon="-6.6568362">
<ele>26.60</ele>
<time>2023-04-28T10:19:04.000Z</time>
</trkpt>
<trkpt lat="43.5665141" lon="-6.6566881">
<ele>27.69</ele>
<time>2023-04-28T10:19:25.000Z</time>
</trkpt>
<trkpt lat="43.5666618" lon="-6.6565365">
<ele>27.69</ele>
<time>2023-04-28T10:19:50.000Z</time>
</trkpt>
<trkpt lat="43.5668162" lon="-6.6566704">
<ele>21.99</ele>
<time>2023-04-28T10:22:29.000Z</time>
</trkpt>
<trkpt lat="43.5669439" lon="-6.6568471">
<ele>20.69</ele>
<time>2023-04-28T10:22:55.000Z</time>
</trkpt>
<trkpt lat="43.5671263" lon="-6.6568767">
<ele>25.59</ele>
<time>2023-04-28T10:23:32.000Z</time>
</trkpt>
<trkpt lat="43.5670663" lon="-6.6571122">
<ele>20.71</ele>
<time>2023-04-28T10:25:00.000Z</time>
</trkpt>
<trkpt lat="43.5668922" lon="-6.6572061">
<ele>21.67</ele>
<time>2023-04-28T10:25:16.000Z</time>
</trkpt>
<trkpt lat="43.5667425" lon="-6.6573585">
<ele>21.66</ele>
<time>2023-04-28T10:26:43.000Z</time>
</trkpt>
<trkpt lat="43.5666211" lon="-6.6575579">
<ele>21.69</ele>
<time>2023-04-28T10:26:58.000Z</time>
</trkpt>
<trkpt lat="43.5664898" lon="-6.6577435">
<ele>23.69</ele>
<time>2023-04-28T10:27:14.000Z</time>
</trkpt>
<trkpt lat="43.5663717" lon="-6.6579397">
<ele>24.98</ele>
<time>2023-04-28T10:27:33.000Z</time>
</trkpt>
<trkpt lat="43.5663196" lon="-6.6581774">
<ele>25.66</ele>
<time>2023-04-28T10:27:56.000Z</time>
</trkpt>
<trkpt lat="43.5661719" lon="-6.6583390">
<ele>25.69</ele>
<time>2023-04-28T10:28:11.000Z</time>
</trkpt>
<trkpt lat="43.5660704" lon="-6.6585473">
<ele>25.69</ele>
<time>2023-04-28T10:28:28.000Z</time>
</trkpt>
<trkpt lat="43.5662287" lon="-6.6586898">
<ele>26.70</ele>
<time>2023-04-28T10:29:07.000Z</time>
</trkpt>
<trkpt lat="43.5663019" lon="-6.6589359">
<ele>22.91</ele>
<time>2023-04-28T10:29:35.000Z</time>
</trkpt>
<trkpt lat="43.5663278" lon="-6.6591932">
<ele>20.69</ele>
<time>2023-04-28T10:29:52.000Z</time>
</trkpt>
<trkpt lat="43.5663788" lon="-6.6594408">
<ele>19.69</ele>
<time>2023-04-28T10:30:06.000Z</time>
</trkpt>
<trkpt lat="43.5663756" lon="-6.6596928">
<ele>22.68</ele>
<time>2023-04-28T10:30:43.000Z</time>
</trkpt>
<trkpt lat="43.5663954" lon="-6.6599467">
<ele>22.01</ele>
<time>2023-04-28T10:31:17.000Z</time>
</trkpt>
<trkpt lat="43.5663188" lon="-6.6601719">
<ele>22.75</ele>
<time>2023-04-28T10:31:34.000Z</time>
</trkpt>
<trkpt lat="43.5661860" lon="-6.6603526">
<ele>23.69</ele>
<time>2023-04-28T10:31:49.000Z</time>
</trkpt>
<trkpt lat="43.5661199" lon="-6.6605892">
<ele>23.69</ele>
<time>2023-04-28T10:32:05.000Z</time>
</trkpt>
<trkpt lat="43.5661247" lon="-6.6608418">
<ele>19.78</ele>
<time>2023-04-28T10:32:31.000Z</time>
</trkpt>
<trkpt lat="43.5661318" lon="-6.6611032">
<ele>19.60</ele>
<time>2023-04-28T10:32:47.000Z</time>
</trkpt>
<trkpt lat="43.5660883" lon="-6.6613444">
<ele>23.66</ele>
<time>2023-04-28T10:33:09.000Z</time>
</trkpt>
<trkpt lat="43.5660984" lon="-6.6615942">
<ele>24.69</ele>
<time>2023-04-28T10:33:27.000Z</time>
</trkpt>
<trkpt lat="43.5660697" lon="-6.6618411">
<ele>25.66</ele>
<time>2023-04-28T10:33:44.000Z</time>
</trkpt>
<trkpt lat="43.5659886" lon="-6.6620694">
<ele>24.69</ele>
<time>2023-04-28T10:34:08.000Z</time>
</trkpt>
<trkpt lat="43.5658821" lon="-6.6622825">
<ele>26.39</ele>
<time>2023-04-28T10:34:37.000Z</time>
</trkpt>
<trkpt lat="43.5657762" lon="-6.6624871">
<ele>26.91</ele>
<time>2023-04-28T10:34:54.000Z</time>
</trkpt>
<trkpt lat="43.5656888" lon="-6.6627198">
<ele>28.69</ele>
<time>2023-04-28T10:35:11.000Z</time>
</trkpt>
<trkpt lat="43.5655718" lon="-6.6629119">
<ele>29.42</ele>
<time>2023-04-28T10:35:28.000Z</time>
</trkpt>
<trkpt lat="43.5654113" lon="-6.6630243">
<ele>25.69</ele>
<time>2023-04-28T10:35:52.000Z</time>
</trkpt>
<trkpt lat="43.5652498" lon="-6.6631407">
<ele>23.70</ele>
<time>2023-04-28T10:36:10.000Z</time>
</trkpt>
<trkpt lat="43.5650870" lon="-6.6632760">
<ele>23.70</ele>
<time>2023-04-28T10:36:29.000Z</time>
</trkpt>
<trkpt lat="43.5648977" lon="-6.6633109">
<ele>23.70</ele>
<time>2023-04-28T10:36:43.000Z</time>
</trkpt>
<trkpt lat="43.5647145" lon="-6.6633130">
<ele>22.70</ele>
<time>2023-04-28T10:37:02.000Z</time>
</trkpt>
<trkpt lat="43.5645545" lon="-6.6631917">
<ele>23.70</ele>
<time>2023-04-28T10:37:22.000Z</time>
</trkpt>
<trkpt lat="43.5643858" lon="-6.6630884">
<ele>27.70</ele>
<time>2023-04-28T10:37:55.000Z</time>
</trkpt>
<trkpt lat="43.5642103" lon="-6.6629982">
<ele>30.64</ele>
<time>2023-04-28T10:38:15.000Z</time>
</trkpt>
<trkpt lat="43.5640721" lon="-6.6631596">
<ele>35.38</ele>
<time>2023-04-28T10:38:58.000Z</time>
</trkpt>
<trkpt lat="43.5641372" lon="-6.6633923">
<ele>35.72</ele>
<time>2023-04-28T10:39:29.000Z</time>
</trkpt>
<trkpt lat="43.5642462" lon="-6.6635945">
<ele>35.71</ele>
<time>2023-04-28T10:39:47.000Z</time>
</trkpt>
<trkpt lat="43.5643567" lon="-6.6637907">
<ele>38.91</ele>
<time>2023-04-28T10:40:07.000Z</time>
</trkpt>
<trkpt lat="43.5644810" lon="-6.6639739">
<ele>39.89</ele>
<time>2023-04-28T10:40:25.000Z</time>
</trkpt>
<trkpt lat="43.5646273" lon="-6.6641345">
<ele>36.70</ele>
<time>2023-04-28T10:40:48.000Z</time>
</trkpt>
<trkpt lat="43.5647595" lon="-6.6643055">
<ele>32.71</ele>
<time>2023-04-28T10:41:35.000Z</time>
</trkpt>
<trkpt lat="43.5648699" lon="-6.6645065">
<ele>28.71</ele>
<time>2023-04-28T10:43:01.000Z</time>
</trkpt>
<trkpt lat="43.5649570" lon="-6.6647390">
<ele>30.70</ele>
<time>2023-04-28T10:43:29.000Z</time>
</trkpt>
<trkpt lat="43.5650756" lon="-6.6649442">
<ele>32.67</ele>
<time>2023-04-28T10:43:49.000Z</time>
</trkpt>
<trkpt lat="43.5652395" lon="-6.6650469">
<ele>32.69</ele>
<time>2023-04-28T10:44:04.000Z</time>
</trkpt>
<trkpt lat="43.5653686" lon="-6.6652359">
<ele>33.59</ele>
<time>2023-04-28T10:44:51.000Z</time>
</trkpt>
<trkpt lat="43.5653892" lon="-6.6654998">
<ele>36.96</ele>
<time>2023-04-28T10:46:16.000Z</time>
</trkpt>
<trkpt lat="43.5653231" lon="-6.6657383">
<ele>41.69</ele>
<time>2023-04-28T10:47:00.000Z</time>
</trkpt>
<trkpt lat="43.5651557" lon="-6.6658640">
<ele>41.69</ele>
<time>2023-04-28T10:47:59.000Z</time>
</trkpt>
<trkpt lat="43.5650075" lon="-6.6660054">
<ele>42.99</ele>
<time>2023-04-28T10:48:17.000Z</time>
</trkpt>
<trkpt lat="43.5648450" lon="-6.6661243">
<ele>42.70</ele>
<time>2023-04-28T10:48:33.000Z</time>
</trkpt>
<trkpt lat="43.5646937" lon="-6.6662601">
<ele>41.70</ele>
<time>2023-04-28T10:48:50.000Z</time>
</trkpt>
<trkpt lat="43.5645278" lon="-6.6663832">
<ele>39.71</ele>
<time>2023-04-28T10:49:06.000Z</time>
</trkpt>
<trkpt lat="43.5643542" lon="-6.6665034">
<ele>40.67</ele>
<time>2023-04-28T10:49:23.000Z</time>
</trkpt>
<trkpt lat="43.5642386" lon="-6.6663127">
<ele>40.61</ele>
<time>2023-04-28T10:49:45.000Z</time>
</trkpt>
<trkpt lat="43.5640502" lon="-6.6662895">
<ele>43.70</ele>
<time>2023-04-28T10:50:07.000Z</time>
</trkpt>
<trkpt lat="43.5638929" lon="-6.6664303">
<ele>45.38</ele>
<time>2023-04-28T10:50:22.000Z</time>
</trkpt>
<trkpt lat="43.5637151" lon="-6.6663785">
<ele>47.41</ele>
<time>2023-04-28T10:52:09.000Z</time>
</trkpt>
<trkpt lat="43.5635349" lon="-6.6664391">
<ele>46.98</ele>
<time>2023-04-28T10:52:26.000Z</time>
</trkpt>
<trkpt lat="43.5633739" lon="-6.6665629">
<ele>45.01</ele>
<time>2023-04-28T10:52:45.000Z</time>
</trkpt>
<trkpt lat="43.5631947" lon="-6.6666239">
<ele>40.92</ele>
<time>2023-04-28T10:53:10.000Z</time>
</trkpt>
<trkpt lat="43.5630180" lon="-6.6666867">
<ele>35.81</ele>
<time>2023-04-28T10:53:32.000Z</time>
</trkpt>
<trkpt lat="43.5628870" lon="-6.6668571">
<ele>36.41</ele>
<time>2023-04-28T10:53:54.000Z</time>
</trkpt>
<trkpt lat="43.5629804" lon="-6.6670713">
<ele>34.65</ele>
<time>2023-04-28T10:54:11.000Z</time>
</trkpt>
<trkpt lat="43.5631052" lon="-6.6672619">
<ele>32.72</ele>
<time>2023-04-28T10:54:34.000Z</time>
</trkpt>
<trkpt lat="43.5631705" lon="-6.6674952">
<ele>30.71</ele>
<time>2023-04-28T10:55:06.000Z</time>
</trkpt>
<trkpt lat="43.5632115" lon="-6.6677437">
<ele>29.71</ele>
<time>2023-04-28T10:55:23.000Z</time>
</trkpt>
<trkpt lat="43.5632171" lon="-6.6679959">
<ele>30.71</ele>
<time>2023-04-28T10:55:41.000Z</time>
</trkpt>
<trkpt lat="43.5631318" lon="-6.6682289">
<ele>30.71</ele>
<time>2023-04-28T10:56:00.000Z</time>
</trkpt>
<trkpt lat="43.5630225" lon="-6.6684436">
<ele>32.71</ele>
<time>2023-04-28T10:56:17.000Z</time>
</trkpt>
<trkpt lat="43.5629186" lon="-6.6686477">
<ele>34.63</ele>
<time>2023-04-28T10:56:34.000Z</time>
</trkpt>
<trkpt lat="43.5628478" lon="-6.6688857">
<ele>33.71</ele>
<time>2023-04-28T10:56:50.000Z</time>
</trkpt>
<trkpt lat="43.5628050" lon="-6.6691380">
<ele>33.71</ele>
<time>2023-04-28T10:57:09.000Z</time>
</trkpt>
<trkpt lat="43.5628212" lon="-6.6693898">
<ele>28.63</ele>
<time>2023-04-28T10:58:47.000Z</time>
</trkpt>
<trkpt lat="43.5629059" lon="-6.6696207">
<ele>27.71</ele>
<time>2023-04-28T10:59:20.000Z</time>
</trkpt>
<trkpt lat="43.5630823" lon="-6.6696744">
<ele>22.73</ele>
<time>2023-04-28T10:59:49.000Z</time>
</trkpt>
<trkpt lat="43.5632512" lon="-6.6697679">
<ele>19.71</ele>
<time>2023-04-28T11:00:39.000Z</time>
</trkpt>
<trkpt lat="43.5633331" lon="-6.6699988">
<ele>19.73</ele>
<time>2023-04-28T11:01:36.000Z</time>
</trkpt>
<trkpt lat="43.5632255" lon="-6.6701996">
<ele>18.62</ele>
<time>2023-04-28T11:01:57.000Z</time>
</trkpt>
<trkpt lat="43.5630825" lon="-6.6703719">
<ele>18.62</ele>
<time>2023-04-28T11:02:13.000Z</time>
</trkpt>
<trkpt lat="43.5629426" lon="-6.6705454">
<ele>18.71</ele>
<time>2023-04-28T11:02:29.000Z</time>
</trkpt>
<trkpt lat="43.5627933" lon="-6.6707043">
<ele>17.80</ele>
<time>2023-04-28T11:03:05.000Z</time>
</trkpt>
<trkpt lat="43.5626457" lon="-6.6708495">
<ele>18.71</ele>
<time>2023-04-28T11:03:58.000Z</time>
</trkpt>
<trkpt lat="43.5624740" lon="-6.6707746">
<ele>18.71</ele>
<time>2023-04-28T11:04:15.000Z</time>
</trkpt>
<trkpt lat="43.5623185" lon="-6.6706349">
<ele>20.69</ele>
<time>2023-04-28T11:04:32.000Z</time>
</trkpt>
<trkpt lat="43.5621754" lon="-6.6704636">
<ele>20.72</ele>
<time>2023-04-28T11:04:50.000Z</time>
</trkpt>
<trkpt lat="43.5619943" lon="-6.6704701">
<ele>22.69</ele>
<time>2023-04-28T11:06:05.000Z</time>
</trkpt>
<trkpt lat="43.5619019" lon="-6.6706925">
<ele>23.72</ele>
<time>2023-04-28T11:07:55.000Z</time>
</trkpt>
<trkpt lat="43.5618997" lon="-6.6709427">
<ele>26.72</ele>
<time>2023-04-28T11:08:38.000Z</time>
</trkpt>
<trkpt lat="43.5619543" lon="-6.6711797">
<ele>28.72</ele>
<time>2023-04-28T11:09:09.000Z</time>
</trkpt>
<trkpt lat="43.5620942" lon="-6.6713504">
<ele>26.81</ele>
<time>2023-04-28T11:09:27.000Z</time>
</trkpt>
<trkpt lat="43.5620993" lon="-6.6716047">
<ele>26.72</ele>
<time>2023-04-28T11:09:43.000Z</time>
</trkpt>
<trkpt lat="43.5620671" lon="-6.6718663">
<ele>25.72</ele>
<time>2023-04-28T11:09:59.000Z</time>
</trkpt>
<trkpt lat="43.5619847" lon="-6.6720978">
<ele>25.70</ele>
<time>2023-04-28T11:10:28.000Z</time>
</trkpt>
<trkpt lat="43.5618776" lon="-6.6723087">
<ele>24.72</ele>
<time>2023-04-28T11:10:44.000Z</time>
</trkpt>
<trkpt lat="43.5617473" lon="-6.6724837">
<ele>25.48</ele>
<time>2023-04-28T11:11:00.000Z</time>
</trkpt>
<trkpt lat="43.5615965" lon="-6.6726220">
<ele>23.72</ele>
<time>2023-04-28T11:11:17.000Z</time>
</trkpt>
<trkpt lat="43.5614153" lon="-6.6725800">
<ele>24.72</ele>
<time>2023-04-28T11:15:12.000Z</time>
</trkpt>
<trkpt lat="43.5612354" lon="-6.6725799">
<ele>19.82</ele>
<time>2023-04-28T11:16:28.000Z</time>
</trkpt>
<trkpt lat="43.5612288" lon="-6.6728302">
<ele>7.76</ele>
<time>2023-04-28T11:18:29.000Z</time>
</trkpt>
<trkpt lat="43.5610427" lon="-6.6728398">
<ele>2.73</ele>
<time>2023-04-28T11:19:45.000Z</time>
</trkpt>
<trkpt lat="43.5608638" lon="-6.6727863">
<ele>3.40</ele>
<time>2023-04-28T11:20:07.000Z</time>
</trkpt>
<trkpt lat="43.5607046" lon="-6.6729109">
<ele>5.72</ele>
<time>2023-04-28T11:20:27.000Z</time>
</trkpt>
<trkpt lat="43.5605448" lon="-6.6730341">
<ele>4.94</ele>
<time>2023-04-28T11:20:46.000Z</time>
</trkpt>
</trkseg>
</trk>
</gpx>
